Time;durP1;ratioP1;P1;durP2;ratioP2;P2;SDS_P1;SDS_P2;PMS_P1;PMS_P2;Temp;Humidity;BMP_temperature;BMP_pressure;BME280_temperature;BME280_humidity;BME280_pressure;Samples;Min_cycle;Max_cycle;Signal;HPM_P1;HPM_P2
2022/04/03 00:01:07;;;;;;;0.60;0.30;;;3.20;1.00;;;;;;5097525;28;20445;-75
2022/04/03 00:03:35;;;;;;;1.47;0.40;;;3.10;1.00;;;;;;5097467;28;20445;-77
2022/04/03 00:06:03;;;;;;;0.50;0.10;;;3.10;1.00;;;;;;5096463;28;20488;-76
2022/04/03 00:08:31;;;;;;;0.50;0.10;;;3.10;1.00;;;;;;5099891;28;20520;-77
2022/04/03 00:10:59;;;;;;;0.80;0.60;;;3.00;1.00;;;;;;5101167;28;20441;-75
2022/04/03 00:13:30;;;;;;;0.50;0.10;;;3.00;1.00;;;;;;5104143;28;20455;-77
2022/04/03 00:15:59;;;;;;;0.50;0.10;;;3.00;1.00;;;;;;5098374;28;20437;-76
2022/04/03 00:18:28;;;;;;;0.50;0.20;;;;;;;;;;5097692;28;20479;-77
2022/04/03 00:20:56;;;;;;;1.03;1.03;;;3.00;1.00;;;;;;5097218;28;20533;-76
2022/04/03 00:23:24;;;;;;;0.50;0.10;;;3.00;1.00;;;;;;5098082;28;20444;-77
2022/04/03 00:25:52;;;;;;;0.50;0.10;;;2.90;1.00;;;;;;5087902;28;20477;-76
2022/04/03 00:28:20;;;;;;;0.63;0.63;;;2.90;1.00;;;;;;5082965;28;20529;-77
2022/04/03 00:30:48;;;;;;;0.50;0.10;;;2.90;1.00;;;;;;5084311;28;20468;-76
2022/04/03 00:33:17;;;;;;;1.33;0.57;;;2.90;1.00;;;;;;5078192;28;20452;-75
2022/04/03 00:35:45;;;;;;;0.60;0.20;;;2.90;1.00;;;;;;5074506;28;20438;-75
2022/04/03 00:38:13;;;;;;;0.50;0.20;;;2.90;1.00;;;;;;5052895;28;20555;-76
2022/04/03 00:40:43;;;;;;;0.50;0.30;;;2.80;1.00;;;;;;5054712;28;20450;-77
2022/04/03 00:43:12;;;;;;;0.50;0.10;;;2.80;1.00;;;;;;5052463;28;20446;-74
2022/04/03 00:45:44;;;;;;;0.60;0.20;;;2.80;1.00;;;;;;5054642;28;20474;-76
2022/04/03 00:48:12;;;;;;;2.00;1.27;;;2.90;1.00;;;;;;5065748;28;20819;-75
2022/04/03 00:50:44;;;;;;;0.60;0.30;;;2.80;1.00;;;;;;5068136;28;20498;-76
2022/04/03 00:53:13;;;;;;;4.93;1.70;;;2.80;1.00;;;;;;5061332;28;20441;-76
2022/04/03 00:55:42;;;;;;;0.50;0.20;;;2.80;1.00;;;;;;5056912;28;20446;-78
2022/04/03 00:58:11;;;;;;;2.53;1.10;;;2.80;1.00;;;;;;5059506;28;20453;-75
2022/04/03 01:00:39;;;;;;;0.50;0.10;;;2.80;1.00;;;;;;5058714;28;20458;-76
2022/04/03 01:03:07;;;;;;;0.50;0.10;;;2.80;1.00;;;;;;5057934;28;20470;-77
2022/04/03 01:05:36;;;;;;;0.50;0.10;;;2.80;1.00;;;;;;5058128;28;20585;-78
2022/04/03 01:08:07;;;;;;;0.50;0.10;;;2.80;1.00;;;;;;5056704;28;20451;-76
2022/04/03 01:10:35;;;;;;;0.60;0.30;;;2.80;1.00;;;;;;5055769;28;20484;-75
2022/04/03 01:13:02;;;;;;;0.97;0.77;;;2.80;1.00;;;;;;5056073;28;20446;-75
2022/04/03 01:15:30;;;;;;;0.77;0.60;;;2.80;1.00;;;;;;5055782;28;20442;-75
2022/04/03 01:17:58;;;;;;;0.90;0.63;;;2.80;1.00;;;;;;5055194;28;20527;-74
2022/04/03 01:20:27;;;;;;;2.70;0.83;;;2.80;1.00;;;;;;5054668;28;20454;-76
2022/04/03 01:22:54;;;;;;;0.50;0.10;;;2.70;1.00;;;;;;5056028;28;20438;-76
2022/04/03 01:25:24;;;;;;;1.43;0.67;;;2.70;1.00;;;;;;5060512;28;20445;-77
2022/04/03 01:27:52;;;;;;;0.50;0.10;;;2.70;1.00;;;;;;5075295;28;20904;-76
2022/04/03 01:30:19;;;;;;;0.50;0.10;;;2.60;1.00;;;;;;5075542;28;20503;-75
2022/04/03 01:32:47;;;;;;;0.60;0.40;;;2.50;1.00;;;;;;5075806;28;20449;-76
2022/04/03 01:35:15;;;;;;;0.60;0.40;;;2.60;1.00;;;;;;5078255;28;20456;-75
2022/04/03 01:37:43;;;;;;;0.57;0.20;;;2.60;1.00;;;;;;5077662;28;20457;-75
2022/04/03 01:40:12;;;;;;;0.50;0.30;;;2.50;1.00;;;;;;5075648;28;20475;-76
2022/04/03 01:42:41;;;;;;;0.93;0.93;;;2.40;1.00;;;;;;5073525;28;20814;-74
2022/04/03 01:45:10;;;;;;;0.50;0.20;;;2.40;1.00;;;;;;5072850;28;20955;-76
2022/04/03 01:47:39;;;;;;;0.50;0.10;;;2.40;1.00;;;;;;5073299;28;20504;-76
2022/04/03 01:50:08;;;;;;;0.50;0.20;;;2.40;1.00;;;;;;5073637;28;20841;-76
2022/04/03 01:52:36;;;;;;;0.50;0.10;;;2.40;1.00;;;;;;5074422;28;20448;-77
2022/04/03 01:55:04;;;;;;;7.50;2.23;;;2.40;1.00;;;;;;5074658;28;20540;-75
2022/04/03 01:57:32;;;;;;;1.47;1.37;;;2.40;1.00;;;;;;5075006;28;20512;-77
2022/04/03 02:00:04;;;;;;;0.50;0.10;;;;;;;;;;5086716;28;20637;-76
2022/04/03 02:02:32;;;;;;;0.70;0.30;;;2.40;1.00;;;;;;5079001;28;20529;-76
2022/04/03 02:05:00;;;;;;;0.50;0.10;;;2.30;1.00;;;;;;5074586;28;20537;-77
2022/04/03 02:07:29;;;;;;;0.50;0.20;;;2.30;1.00;;;;;;5073628;28;20481;-75
2022/04/03 02:09:56;;;;;;;0.60;0.23;;;2.30;1.00;;;;;;5073025;28;20491;-75
2022/04/03 02:12:24;;;;;;;0.67;0.67;;;2.30;1.00;;;;;;5073899;28;20468;-77
2022/04/03 02:14:52;;;;;;;0.50;0.10;;;2.30;1.00;;;;;;5074139;28;20588;-75
2022/04/03 02:17:21;;;;;;;0.60;0.20;;;2.30;1.00;;;;;;5073814;28;20441;-75
2022/04/03 02:19:49;;;;;;;0.73;0.73;;;2.30;1.00;;;;;;5077081;28;20975;-76
2022/04/03 02:22:20;;;;;;;0.50;0.10;;;2.30;1.00;;;;;;5077237;28;20427;-75
2022/04/03 02:24:48;;;;;;;0.50;0.10;;;2.30;1.00;;;;;;5076959;28;20652;-76
2022/04/03 02:27:16;;;;;;;0.50;0.10;;;2.20;1.00;;;;;;5077763;28;20569;-77
2022/04/03 02:29:44;;;;;;;0.60;0.33;;;2.30;1.00;;;;;;5078528;28;20466;-76
2022/04/03 02:32:12;;;;;;;0.50;0.10;;;2.20;1.00;;;;;;5071070;28;20442;-75
2022/04/03 02:34:41;;;;;;;0.50;0.10;;;2.10;1.00;;;;;;5052873;28;20448;-76
2022/04/03 02:37:14;;;;;;;0.60;0.27;;;2.10;1.00;;;;;;5052696;28;21094;-75
2022/04/03 02:39:44;;;;;;;2.50;2.30;;;2.10;1.00;;;;;;5062784;28;20484;-76
2022/04/03 02:42:12;;;;;;;0.83;0.83;;;2.10;1.00;;;;;;5064838;28;20554;-76
2022/04/03 02:44:39;;;;;;;0.67;0.50;;;2.10;1.00;;;;;;5062465;28;20447;-76
2022/04/03 02:47:08;;;;;;;0.50;0.10;;;2.10;1.00;;;;;;5053514;28;20486;-74
2022/04/03 02:49:36;;;;;;;0.50;0.20;;;2.10;1.00;;;;;;5055158;28;20474;-75
2022/04/03 02:52:05;;;;;;;0.87;0.73;;;2.00;1.00;;;;;;5058498;28;20914;-76
2022/04/03 02:54:34;;;;;;;0.50;0.10;;;2.00;1.00;;;;;;5059931;28;20439;-77
2022/04/03 02:57:02;;;;;;;0.70;0.50;;;2.00;1.00;;;;;;5059427;28;20971;-75
2022/04/03 02:59:30;;;;;;;0.50;0.10;;;2.00;1.00;;;;;;5056442;28;21047;-75
2022/04/03 03:01:58;;;;;;;0.50;0.20;;;2.00;1.00;;;;;;5055295;28;20455;-76
2022/04/03 03:04:26;;;;;;;0.67;0.37;;;1.90;1.00;;;;;;5053214;28;20557;-77
2022/04/03 03:06:54;;;;;;;0.50;0.10;;;1.90;1.00;;;;;;5053786;28;20485;-77
2022/04/03 03:09:23;;;;;;;0.50;0.10;;;1.90;1.00;;;;;;5054608;28;20467;-76
2022/04/03 03:11:51;;;;;;;0.70;0.70;;;1.90;1.00;;;;;;5055467;28;20979;-77
2022/04/03 03:14:19;;;;;;;0.50;0.10;;;1.90;1.00;;;;;;5054054;28;20525;-78
2022/04/03 03:16:47;;;;;;;0.50;0.10;;;1.90;1.00;;;;;;5053022;28;20446;-75
2022/04/03 03:19:16;;;;;;;0.90;0.60;;;1.90;1.00;;;;;;5053288;28;20528;-76
2022/04/03 03:21:44;;;;;;;0.73;0.40;;;1.90;1.00;;;;;;5055661;28;20480;-77
2022/04/03 03:24:12;;;;;;;0.50;0.10;;;1.90;1.00;;;;;;5056566;28;20813;-79
2022/04/03 03:26:41;;;;;;;1.03;1.03;;;1.90;1.00;;;;;;5055787;28;20532;-75
2022/04/03 03:29:09;;;;;;;0.50;0.10;;;1.80;1.00;;;;;;5055708;28;20467;-76
2022/04/03 03:31:37;;;;;;;0.50;0.20;;;1.80;1.00;;;;;;5058029;28;20446;-77
2022/04/03 03:34:05;;;;;;;0.70;0.50;;;1.80;1.00;;;;;;5059376;28;20564;-77
2022/04/03 03:36:33;;;;;;;2.20;0.67;;;3.70;1.00;;;;;;5057133;28;20810;-76
2022/04/03 03:39:01;;;;;;;0.50;0.10;;;1.70;1.00;;;;;;5054834;28;20485;-77
2022/04/03 03:41:29;;;;;;;2.80;1.43;;;1.70;1.00;;;;;;5053772;28;20443;-77
2022/04/03 03:43:58;;;;;;;1.00;0.37;;;1.70;1.00;;;;;;5056822;28;20533;-76
2022/04/03 03:46:26;;;;;;;0.50;0.20;;;1.70;1.00;;;;;;5060267;28;20518;-76
2022/04/03 03:48:54;;;;;;;0.50;0.20;;;1.70;1.00;;;;;;5058098;28;20475;-76
2022/04/03 03:51:22;;;;;;;1.70;1.37;;;1.70;1.00;;;;;;5053715;28;20443;-75
2022/04/03 03:53:50;;;;;;;0.70;0.53;;;1.70;1.00;;;;;;5053579;28;20439;-76
2022/04/03 03:56:18;;;;;;;1.37;1.27;;;1.60;1.00;;;;;;5053706;28;20450;-78
2022/04/03 03:58:46;;;;;;;0.50;0.10;;;1.60;1.00;;;;;;5053655;28;20512;-77
2022/04/03 04:01:16;;;;;;;0.80;0.60;;;1.60;1.00;;;;;;5055431;28;20529;-76
2022/04/03 04:03:44;;;;;;;0.50;0.10;;;1.60;1.00;;;;;;5055749;28;20449;-77
2022/04/03 04:06:11;;;;;;;0.50;0.17;;;1.60;1.00;;;;;;5054093;28;20537;-76
2022/04/03 04:08:39;;;;;;;0.50;0.20;;;1.60;1.00;;;;;;5055223;28;20486;-77
2022/04/03 04:11:07;;;;;;;0.50;0.20;;;1.60;1.00;;;;;;5067562;28;20465;-76
2022/04/03 04:13:36;;;;;;;0.60;0.43;;;1.60;1.00;;;;;;5067008;28;20451;-76
2022/04/03 04:16:05;;;;;;;5.80;1.23;;;1.60;1.00;;;;;;5055187;28;20520;-76
2022/04/03 04:18:36;;;;;;;0.50;0.10;;;1.60;99.90;;;;;;5057892;28;20514;-75
2022/04/03 04:21:04;;;;;;;0.60;0.53;;;1.60;99.90;;;;;;5060058;22;20521;-67
2022/04/03 04:23:33;;;;;;;0.50;0.10;;;1.60;99.90;;;;;;5034215;28;20881;-68
2022/04/03 04:26:01;;;;;;;0.67;0.47;;;1.60;99.90;;;;;;5054043;28;20443;-68
2022/04/03 04:28:29;;;;;;;0.50;0.20;;;1.50;99.90;;;;;;5056543;28;20478;-68
2022/04/03 04:30:57;;;;;;;2.70;1.37;;;1.50;99.90;;;;;;5056507;28;20466;-67
2022/04/03 04:33:26;;;;;;;0.50;0.10;;;1.50;99.90;;;;;;5054032;28;20542;-67
2022/04/03 04:35:55;;;;;;;0.50;0.10;;;1.50;99.90;;;;;;5054088;28;20939;-67
2022/04/03 04:38:23;;;;;;;0.50;0.20;;;1.50;99.90;;;;;;5053846;28;20526;-67
2022/04/03 04:40:51;;;;;;;0.60;0.57;;;1.50;99.90;;;;;;5053718;28;20469;-67
2022/04/03 04:43:19;;;;;;;0.50;0.30;;;1.50;99.90;;;;;;5054034;28;20447;-68
2022/04/03 04:45:47;;;;;;;0.50;0.20;;;1.50;99.90;;;;;;5053910;28;20811;-67
2022/04/03 04:48:14;;;;;;;0.50;0.10;;;1.50;99.90;;;;;;5053327;28;20996;-68
2022/04/03 04:50:43;;;;;;;0.50;0.10;;;1.50;99.90;;;;;;5053824;28;20524;-69
2022/04/03 04:53:12;;;;;;;1.47;1.37;;;1.40;99.90;;;;;;5053646;28;20439;-67
2022/04/03 04:55:40;;;;;;;0.50;0.20;;;1.40;99.90;;;;;;5054079;28;20450;-67
2022/04/03 04:58:08;;;;;;;0.50;0.10;;;1.40;99.90;;;;;;5054459;28;20533;-68
2022/04/03 05:00:36;;;;;;;0.60;0.37;;;1.40;99.90;;;;;;5054226;28;20463;-67
2022/04/03 05:03:04;;;;;;;0.50;0.30;;;1.40;99.90;;;;;;5053869;28;21010;-67
2022/04/03 05:05:32;;;;;;;0.50;0.10;;;1.40;99.90;;;;;;5054240;28;20454;-67
2022/04/03 05:08:01;;;;;;;0.90;0.30;;;1.40;99.90;;;;;;5054224;28;20490;-67
2022/04/03 05:10:32;;;;;;;0.60;0.37;;;1.40;99.90;;;;;;5054028;28;20557;-68
2022/04/03 05:13:01;;;;;;;0.50;0.10;;;1.30;99.90;;;;;;5053940;28;20533;-67
2022/04/03 05:15:30;;;;;;;1.53;0.70;;;1.30;99.90;;;;;;5053399;28;20532;-68
2022/04/03 05:17:59;;;;;;;0.50;0.20;;;1.30;99.90;;;;;;5053701;28;20474;-68
2022/04/03 05:20:27;;;;;;;1.03;0.50;;;1.30;99.90;;;;;;5053994;28;21166;-68
2022/04/03 05:22:56;;;;;;;0.50;0.30;;;1.30;99.90;;;;;;5054331;28;20541;-67
2022/04/03 05:25:24;;;;;;;0.50;0.10;;;1.30;99.90;;;;;;5048334;28;20528;-68
2022/04/03 05:27:53;;;;;;;1.60;1.50;;;1.40;99.90;;;;;;5032008;28;20475;-67
2022/04/03 05:30:21;;;;;;;0.50;0.10;;;1.40;99.90;;;;;;5033201;28;20499;-67
2022/04/03 05:32:49;;;;;;;1.00;0.43;;;1.30;99.90;;;;;;5033505;28;20439;-67
2022/04/03 05:35:17;;;;;;;1.70;1.60;;;1.30;99.90;;;;;;5033355;28;20447;-67
2022/04/03 05:37:45;;;;;;;0.50;0.20;;;1.30;99.90;;;;;;5033331;28;20459;-68
2022/04/03 05:40:15;;;;;;;1.27;0.53;;;1.30;99.90;;;;;;5033222;28;20463;-68
2022/04/03 05:42:43;;;;;;;1.10;0.70;;;1.40;99.90;;;;;;5032892;28;20544;-67
2022/04/03 05:45:13;;;;;;;0.50;0.10;;;1.40;99.90;;;;;;5032787;28;20462;-67
2022/04/03 05:47:41;;;;;;;0.50;0.17;;;1.40;99.90;;;;;;5032464;28;20447;-68
2022/04/03 05:50:11;;;;;;;2.20;1.53;;;1.50;99.90;;;;;;5032939;28;20537;-68
2022/04/03 05:52:40;;;;;;;0.50;0.10;;;1.50;99.90;;;;;;5033479;28;20450;-67
2022/04/03 05:55:09;;;;;;;0.60;0.37;;;1.50;99.90;;;;;;5034064;28;20439;-67
2022/04/03 05:57:38;;;;;;;0.50;0.10;;;1.50;99.90;;;;;;5032970;28;20439;-68
2022/04/03 06:00:08;;;;;;;0.70;0.40;;;1.50;99.90;;;;;;5032212;28;20470;-67
2022/04/03 06:02:47;;;;;;;0.50;0.10;;;1.50;99.90;;;;;;5032342;28;20910;-68
2022/04/03 06:05:15;;;;;;;0.50;0.10;;;1.50;99.90;;;;;;5032651;28;20439;-66
2022/04/03 06:07:43;;;;;;;0.50;0.10;;;1.60;99.90;;;;;;5032461;28;20439;-67
2022/04/03 06:10:11;;;;;;;0.50;0.10;;;1.70;99.90;;;;;;5032839;28;20853;-67
2022/04/03 06:12:51;;;;;;;0.50;0.10;;;1.70;99.90;;;;;;5032488;28;20450;-68
2022/04/03 06:15:19;;;;;;;0.50;0.10;;;1.70;99.90;;;;;;5032093;28;20537;-68
2022/04/03 06:17:50;;;;;;;0.50;0.10;;;1.80;99.90;;;;;;5032566;28;20454;-66
2022/04/03 06:20:23;;;;;;;0.50;0.10;;;1.80;99.90;;;;;;5033270;28;20482;-67
2022/04/03 06:22:51;;;;;;;0.60;0.30;;;1.80;99.90;;;;;;5033038;28;20452;-67
2022/04/03 06:25:20;;;;;;;0.60;0.30;;;1.80;99.90;;;;;;5032481;28;20459;-67
2022/04/03 06:27:48;;;;;;;0.50;0.20;;;;;;;;;;5032276;28;20449;-68
2022/04/03 06:30:16;;;;;;;0.50;0.30;;;1.80;99.90;;;;;;5032487;28;20483;-67
2022/04/03 06:32:44;;;;;;;0.50;0.10;;;1.80;99.90;;;;;;5032572;28;20443;-68
2022/04/03 06:35:14;;;;;;;2.07;1.60;;;1.80;99.90;;;;;;5032822;28;20447;-67
2022/04/03 06:37:42;;;;;;;0.50;0.20;;;1.80;99.90;;;;;;5031798;28;20457;-67
2022/04/03 06:40:11;;;;;;;1.23;1.13;;;1.80;99.90;;;;;;5032235;28;20464;-67
2022/04/03 06:42:39;;;;;;;0.50;0.20;;;1.80;99.90;;;;;;5032530;28;20633;-69
2022/04/03 06:45:08;;;;;;;3.53;0.97;;;1.80;99.90;;;;;;5032355;28;20918;-68
2022/04/03 06:47:36;;;;;;;4.00;3.80;;;1.80;99.90;;;;;;5032302;28;20470;-68
2022/04/03 06:50:06;;;;;;;0.60;0.40;;;1.90;99.90;;;;;;5032005;28;20490;-68
2022/04/03 06:52:36;;;;;;;1.37;1.27;;;1.90;99.90;;;;;;5032363;28;20470;-67
2022/04/03 06:55:04;;;;;;;0.50;0.10;;;2.00;99.90;;;;;;5032064;28;20796;-71
2022/04/03 06:57:32;;;;;;;0.53;0.20;;;2.00;99.90;;;;;;5031794;28;20447;-67
2022/04/03 07:00:00;;;;;;;0.60;0.53;;;2.00;99.90;;;;;;5032026;28;20466;-69
2022/04/03 07:02:28;;;;;;;2.40;0.50;;;2.00;99.90;;;;;;5032356;28;20481;-68
2022/04/03 07:04:56;;;;;;;0.70;0.50;;;2.10;99.90;;;;;;5033035;28;20451;-67
2022/04/03 07:07:25;;;;;;;1.10;0.60;;;2.00;99.90;;;;;;5033916;28;20816;-68
2022/04/03 07:09:54;;;;;;;0.50;0.10;;;2.00;99.90;;;;;;5033258;28;20494;-68
2022/04/03 07:12:23;;;;;;;0.50;0.10;;;2.00;99.90;;;;;;5033079;28;20451;-68
2022/04/03 07:14:51;;;;;;;0.50;0.10;;;2.10;99.90;;;;;;5032394;28;20443;-67
2022/04/03 07:17:20;;;;;;;0.70;0.37;;;2.20;99.90;;;;;;5032472;28;20443;-68
2022/04/03 07:19:48;;;;;;;0.60;0.40;;;2.30;99.90;;;;;;5032434;28;20477;-67
2022/04/03 07:22:15;;;;;;;0.67;0.40;;;2.30;99.90;;;;;;5031901;28;20528;-67
2022/04/03 07:24:43;;;;;;;0.50;0.10;;;2.40;99.90;;;;;;5031954;28;20447;-68
2022/04/03 07:27:12;;;;;;;0.50;0.10;;;2.40;99.90;;;;;;5012171;28;20535;-69
2022/04/03 07:29:40;;;;;;;0.67;0.40;;;2.50;99.90;;;;;;5011899;28;20484;-68
2022/04/03 07:32:09;;;;;;;0.80;0.40;;;2.50;99.90;;;;;;5012738;28;20447;-68
2022/04/03 07:34:37;;;;;;;0.60;0.30;;;2.60;99.90;;;;;;5012018;28;20473;-67
2022/04/03 07:37:05;;;;;;;1.03;0.77;;;2.60;99.90;;;;;;5012824;28;20452;-68
2022/04/03 07:39:35;;;;;;;0.60;0.50;;;2.70;99.90;;;;;;5011417;28;20975;-67
2022/04/03 07:42:03;;;;;;;0.70;0.40;;;2.70;99.90;;;;;;5011731;28;20454;-69
2022/04/03 07:44:32;;;;;;;0.50;0.10;;;2.70;99.90;;;;;;5011643;28;20448;-68
2022/04/03 07:47:00;;;;;;;0.60;0.37;;;2.70;99.90;;;;;;5011402;28;20874;-69
2022/04/03 07:49:28;;;;;;;0.50;0.10;;;2.90;99.90;;;;;;5011327;28;20559;-69
2022/04/03 07:51:58;;;;;;;0.50;0.10;;;2.90;99.90;;;;;;5013187;28;20811;-68
2022/04/03 07:54:29;;;;;;;1.00;0.90;;;3.00;99.90;;;;;;5015265;28;20447;-69
2022/04/03 07:57:00;;;;;;;0.50;0.30;;;3.00;99.90;;;;;;5015263;28;20480;-69
2022/04/03 07:59:30;;;;;;;0.50;0.10;;;2.90;99.90;;;;;;5015372;28;20816;-70
2022/04/03 08:01:59;;;;;;;0.50;0.10;;;2.90;99.90;;;;;;5015334;28;20947;-68
2022/04/03 08:04:27;;;;;;;0.50;0.20;;;2.90;99.90;;;;;;5014995;28;20439;-68
2022/04/03 08:06:55;;;;;;;0.50;0.10;;;2.90;99.90;;;;;;5015024;28;20450;-68
2022/04/03 08:09:23;;;;;;;9.17;1.07;;;3.00;99.90;;;;;;5015107;28;20543;-67
2022/04/03 08:11:51;;;;;;;0.50;0.20;;;3.00;99.90;;;;;;5014671;28;20467;-67
2022/04/03 08:14:19;;;;;;;0.80;0.30;;;3.00;99.90;;;;;;5036373;28;20477;-67
2022/04/03 08:16:47;;;;;;;0.50;0.20;;;3.00;99.90;;;;;;5054290;28;20443;-68
2022/04/03 08:19:16;;;;;;;0.50;0.10;;;3.10;99.90;;;;;;5054530;28;20529;-67
2022/04/03 08:21:44;;;;;;;0.50;0.10;;;3.10;99.90;;;;;;5054278;28;20443;-67
2022/04/03 08:24:12;;;;;;;0.50;0.10;;;3.30;99.90;;;;;;5054924;28;20862;-68
2022/04/03 08:26:41;;;;;;;0.50;0.10;;;3.30;99.90;;;;;;5038469;28;20440;-67
2022/04/03 08:29:08;;;;;;;0.60;0.50;;;3.30;99.90;;;;;;5034230;28;20813;-67
2022/04/03 08:31:36;;;;;;;0.60;0.30;;;3.40;99.90;;;;;;5033407;28;20450;-68
2022/04/03 08:34:05;;;;;;;0.57;0.27;;;;;;;;;;5033906;28;20498;-67
2022/04/03 08:36:54;;;;;;;0.50;0.20;;;3.60;99.90;;;;;;5034599;28;20458;-67
2022/04/03 08:39:22;;;;;;;0.50;0.10;;;3.70;99.90;;;;;;5034593;28;20962;-67
2022/04/03 08:41:50;;;;;;;0.70;0.40;;;3.70;99.90;;;;;;5034592;28;20974;-68
2022/04/03 08:44:18;;;;;;;0.50;0.20;;;3.70;99.90;;;;;;5033822;28;20445;-68
2022/04/03 08:46:48;;;;;;;0.50;0.10;;;3.70;99.90;;;;;;5033585;28;20449;-68
2022/04/03 08:49:17;;;;;;;0.50;0.10;;;3.80;99.90;;;;;;5033951;28;20449;-68
2022/04/03 08:51:46;;;;;;;0.50;0.10;;;3.90;99.90;;;;;;5034228;28;20543;-69
2022/04/03 08:54:17;;;;;;;4.73;1.07;;;4.00;99.90;;;;;;5034000;28;20443;-69
2022/04/03 08:56:45;;;;;;;0.50;0.10;;;4.00;99.90;;;;;;5034133;28;20442;-69
2022/04/03 08:59:13;;;;;;;0.50;0.10;;;4.20;99.90;;;;;;5033450;28;20944;-69
2022/04/03 09:01:40;;;;;;;0.60;0.10;;;4.20;99.90;;;;;;5035448;28;20449;-68
2022/04/03 09:04:09;;;;;;;0.50;0.10;;;4.20;99.90;;;;;;5035185;28;20449;-67
2022/04/03 09:06:54;;;;;;;0.50;0.10;;;4.30;99.90;;;;;;5036498;28;20443;-68
2022/04/03 09:09:25;;;;;;;0.50;0.20;;;4.40;99.90;;;;;;5034571;28;20453;-67
2022/04/03 09:12:10;;;;;;;2.00;1.07;;;4.40;99.90;;;;;;5034111;28;20940;-68
2022/04/03 09:14:47;;;;;;;2.20;1.60;;;4.50;99.90;;;;;;5033290;28;20512;-68
2022/04/03 09:17:32;;;;;;;0.60;0.47;;;4.50;99.90;;;;;;5033585;28;20452;-68
2022/04/03 09:20:05;;;;;;;0.70;0.30;;;4.40;99.90;;;;;;5033353;28;20477;-68
2022/04/03 09:22:35;;;;;;;0.50;0.10;;;4.40;99.90;;;;;;5033779;28;20445;-70
2022/04/03 09:25:05;;;;;;;0.73;0.33;;;4.40;99.90;;;;;;5035654;28;20814;-69
2022/04/03 09:27:34;;;;;;;0.60;0.30;;;4.40;99.90;;;;;;5053114;28;20533;-69
2022/04/03 09:30:07;;;;;;;0.60;0.30;;;4.50;99.90;;;;;;5048699;28;20495;-69
2022/04/03 09:32:35;;;;;;;0.50;0.10;;;4.50;99.90;;;;;;5031091;28;20460;-68
2022/04/03 09:35:04;;;;;;;0.50;0.10;;;4.60;99.90;;;;;;5032084;28;20444;-70
2022/04/03 09:37:33;;;;;;;0.50;0.10;;;4.70;99.90;;;;;;5032555;28;20443;-69
2022/04/03 09:40:03;;;;;;;1.27;0.87;;;4.70;99.90;;;;;;5033100;28;20759;-67
2022/04/03 09:42:32;;;;;;;0.97;0.57;;;4.40;99.90;;;;;;5033078;28;20451;-68
2022/04/03 09:45:04;;;;;;;0.50;0.10;;;4.50;99.90;;;;;;5032506;28;20514;-67
2022/04/03 09:47:33;;;;;;;0.50;0.10;;;4.50;99.90;;;;;;5032670;28;20946;-69
2022/04/03 09:50:04;;;;;;;0.63;0.43;;;4.60;99.90;;;;;;5032711;28;20495;-69
2022/04/03 09:52:43;;;;;;;0.50;0.10;;;4.70;99.90;;;;;;5032717;28;20954;-69
2022/04/03 09:55:21;;;;;;;0.50;0.10;;;4.80;99.90;;;;;;5032974;28;20443;-69
2022/04/03 09:58:02;;;;;;;0.50;0.10;;;5.10;99.90;;;;;;5032426;28;20528;-68
2022/04/03 10:00:44;;;;;;;0.50;0.10;;;5.40;99.90;;;;;;5033128;28;20475;-70
2022/04/03 10:03:14;;;;;;;0.60;0.10;;;5.40;99.90;;;;;;5032855;28;20459;-70
2022/04/03 10:05:43;;;;;;;0.60;0.20;;;5.40;99.90;;;;;;5032861;28;20448;-70
2022/04/03 10:08:12;;;;;;;0.60;0.37;;;5.40;99.90;;;;;;5032073;28;20452;-68
2022/04/03 10:10:40;;;;;;;0.60;0.10;;;5.40;99.90;;;;;;5032272;28;20558;-68
2022/04/03 10:13:10;;;;;;;0.50;0.10;;;5.30;99.90;;;;;;5032561;28;20737;-69
2022/04/03 10:15:39;;;;;;;0.60;0.10;;;5.50;99.90;;;;;;5031686;28;20459;-69
2022/04/03 10:18:07;;;;;;;0.73;0.53;;;5.70;99.90;;;;;;5031796;28;20445;-69
2022/04/03 10:20:37;;;;;;;0.50;0.17;;;5.90;99.90;;;;;;5080899;23;20572;-78
2022/04/03 10:23:08;;;;;;;0.60;0.10;;;6.00;99.90;;;;;;5059808;28;20531;-77
2022/04/03 10:25:41;;;;;;;0.80;0.30;;;6.00;99.90;;;;;;5065232;28;20515;-76
2022/04/03 10:28:11;;;;;;;0.60;0.20;;;6.20;99.90;;;;;;5079953;28;20974;-76
2022/04/03 10:30:42;;;;;;;0.60;0.20;;;6.30;99.90;;;;;;5083038;28;20492;-76
2022/04/03 10:33:20;;;;;;;0.60;0.10;;;6.40;99.90;;;;;;5095703;28;20469;-77
2022/04/03 10:36:06;;;;;;;0.60;0.10;;;6.40;99.90;;;;;;5095180;28;20481;-76
2022/04/03 10:38:38;;;;;;;0.60;0.10;;;6.50;99.90;;;;;;5094400;28;20473;-78
2022/04/03 10:41:07;;;;;;;0.70;0.50;;;6.60;99.90;;;;;;5084741;28;20923;-76
2022/04/03 10:43:40;;;;;;;0.60;0.10;;;6.40;99.90;;;;;;5073433;28;20444;-76
2022/04/03 10:46:08;;;;;;;0.60;0.20;;;6.40;99.90;;;;;;5072867;28;20837;-77
2022/04/03 10:48:37;;;;;;;0.57;0.10;;;6.50;99.90;;;;;;5073659;28;20511;-76
2022/04/03 10:51:08;;;;;;;0.50;0.10;;;6.60;99.90;;;;;;5072651;28;20919;-75
2022/04/03 10:53:38;;;;;;;1.27;0.73;;;6.60;99.90;;;;;;5073162;28;20454;-76
2022/04/03 10:56:10;;;;;;;0.60;0.10;;;6.40;99.90;;;;;;5074687;28;20453;-76
2022/04/03 10:58:45;;;;;;;0.60;0.23;;;6.40;99.90;;;;;;5073909;28;20479;-76
2022/04/03 11:01:25;;;;;;;0.60;0.10;;;6.40;99.90;;;;;;5069934;28;20829;-76
2022/04/03 11:03:56;;;;;;;0.50;0.10;;;6.40;99.90;;;;;;5053287;28;20960;-77
2022/04/03 11:06:30;;;;;;;0.90;0.73;;;6.30;99.90;;;;;;5075305;28;20427;-77
2022/04/03 11:09:09;;;;;;;0.50;0.10;;;6.20;99.90;;;;;;5075642;28;20448;-76
2022/04/03 11:11:44;;;;;;;0.50;0.10;;;6.10;99.90;;;;;;5073242;28;20861;-77
2022/04/03 11:14:59;;;;;;;0.50;0.10;;;6.00;99.90;;;;;;5075327;28;20510;-74
2022/04/03 11:17:50;;;;;;;0.50;0.17;;;6.10;99.90;;;;;;5073256;28;20452;-74
2022/04/03 11:20:37;;;;;;;0.70;0.27;;;6.00;99.90;;;;;;5073741;28;20470;-77
2022/04/03 11:23:07;;;;;;;0.77;0.33;;;6.00;99.90;;;;;;5073786;28;20934;-75
2022/04/03 11:25:36;;;;;;;0.50;0.10;;;;;;;;;;5074297;28;20442;-76
2022/04/03 11:28:05;;;;;;;0.60;0.10;;;5.90;99.90;;;;;;5078056;28;20462;-78
2022/04/03 11:30:35;;;;;;;0.70;0.67;;;6.10;99.90;;;;;;5079141;28;20463;-77
2022/04/03 11:33:05;;;;;;;0.50;0.10;;;6.10;99.90;;;;;;5081783;28;20465;-75
2022/04/03 11:35:39;;;;;;;0.50;0.10;;;6.20;99.90;;;;;;5080787;28;20446;-76
2022/04/03 11:38:09;;;;;;;0.50;0.20;;;6.20;99.90;;;;;;5079649;28;20462;-78
2022/04/03 11:40:40;;;;;;;3.07;0.83;;;6.20;99.90;;;;;;5080117;28;20841;-74
2022/04/03 11:43:09;;;;;;;0.60;0.10;;;6.20;99.90;;;;;;5080114;28;20492;-75
2022/04/03 11:45:39;;;;;;;2.10;2.00;;;6.10;99.90;;;;;;5087169;28;20445;-75
2022/04/03 11:48:21;;;;;;;0.60;0.10;;;6.30;99.90;;;;;;5093427;28;20440;-76
2022/04/03 11:50:51;;;;;;;0.60;0.10;;;6.50;99.90;;;;;;5086960;28;20557;-75
2022/04/03 11:53:24;;;;;;;0.60;0.10;;;6.60;99.90;;;;;;5082476;28;20458;-76
2022/04/03 11:55:52;;;;;;;0.60;0.10;;;6.70;99.90;;;;;;5090248;28;20459;-76
2022/04/03 11:58:20;;;;;;;0.60;0.10;;;6.80;99.90;;;;;;5078737;28;20447;-78
2022/04/03 12:00:50;;;;;;;0.60;0.30;;;7.10;99.90;;;;;;5093163;28;20491;-75
2022/04/03 12:03:28;;;;;;;0.60;0.30;;;7.20;99.90;;;;;;5076590;28;20448;-77
2022/04/03 12:06:17;;;;;;;0.60;0.10;;;7.10;99.90;;;;;;5082255;28;20770;-77
2022/04/03 12:08:50;;;;;;;0.60;0.10;;;7.20;99.90;;;;;;5086199;28;20621;-76
2022/04/03 12:11:24;;;;;;;2.40;2.30;;;7.20;99.90;;;;;;5097861;28;20476;-76
2022/04/03 12:13:53;;;;;;;0.60;0.10;;;7.20;99.90;;;;;;5087640;28;20474;-78
2022/04/03 12:16:24;;;;;;;0.57;0.10;;;7.30;99.90;;;;;;5091316;28;20466;-76
2022/04/03 12:18:57;;;;;;;0.60;0.30;;;7.30;99.90;;;;;;5065141;28;20505;-76
2022/04/03 12:21:41;;;;;;;0.60;0.10;;;7.20;99.90;;;;;;5074491;28;20477;-77
2022/04/03 12:24:11;;;;;;;0.50;0.10;;;7.30;99.90;;;;;;5085899;28;20434;-78
2022/04/03 12:26:44;;;;;;;0.60;0.10;;;7.30;99.90;;;;;;5094223;28;20438;-76
2022/04/03 12:29:12;;;;;;;0.60;0.37;;;7.40;99.90;;;;;;5081858;28;20435;-76
2022/04/03 12:31:42;;;;;;;0.60;0.10;;;7.40;99.90;;;;;;5094413;28;20850;-76
2022/04/03 12:34:12;;;;;;;0.60;0.10;;;7.40;99.90;;;;;;5089402;28;20448;-78
2022/04/03 12:36:42;;;;;;;0.60;0.33;;;7.40;99.90;;;;;;5074917;28;20438;-77
2022/04/03 12:39:43;;;;;;;0.50;0.20;;;7.40;99.90;;;;;;5079301;28;20443;-77
2022/04/03 12:42:23;;;;;;;0.60;0.10;;;7.60;99.90;;;;;;4996337;28;20448;-78
2022/04/03 12:44:53;;;;;;;0.60;0.10;;;7.60;99.90;;;;;;4995370;28;20458;-78
2022/04/03 12:47:24;;;;;;;0.60;0.10;;;7.70;99.90;;;;;;5039385;28;21002;-78
2022/04/03 12:50:13;;;;;;;0.60;0.10;;;7.90;99.90;;;;;;5072440;28;20455;-79
2022/04/03 12:52:43;;;;;;;0.60;0.10;;;7.90;99.90;;;;;;5072522;28;20836;-77
2022/04/03 12:55:35;;;;;;;1.07;0.40;;;8.10;99.90;;;;;;5093750;28;20447;-76
2022/04/03 12:58:30;;;;;;;0.70;0.30;;;8.00;99.90;;;;;;5093508;28;20503;-78
2022/04/03 13:01:06;;;;;;;0.60;0.13;;;7.90;99.90;;;;;;5097767;28;20476;-76
2022/04/03 13:03:38;;;;;;;2.30;2.13;;;7.90;99.90;;;;;;5074860;28;20442;-78
2022/04/03 13:06:08;;;;;;;0.70;0.50;;;7.90;99.90;;;;;;5078548;28;20450;-78
2022/04/03 13:08:48;;;;;;;0.80;0.53;;;7.80;99.90;;;;;;5077652;28;20451;-78
2022/04/03 13:11:30;;;;;;;0.83;0.60;;;7.80;99.90;;;;;;5075049;28;20484;-76
2022/04/03 13:14:17;;;;;;;0.60;0.10;;;7.70;99.90;;;;;;5076533;28;20426;-79
2022/04/03 13:16:47;;;;;;;0.60;0.10;;;7.80;99.90;;;;;;5075802;28;20535;-78
2022/04/03 13:19:16;;;;;;;0.50;0.10;;;7.80;99.90;;;;;;5075966;28;20511;-76